createdAt,value
2018-02-23T00:01:41.780Z,54.20
2018-02-23T00:04:09.253Z,54.20
2018-02-23T00:06:38.653Z,54.60
2018-02-23T00:09:06.885Z,54.60
2018-02-23T00:11:34.321Z,54.60
2018-02-23T00:14:01.864Z,54.70
2018-02-23T00:16:29.313Z,54.70
2018-02-23T00:18:57.560Z,54.80
2018-02-23T00:21:25.068Z,54.80
2018-02-23T00:23:53.119Z,55.10
2018-02-23T00:26:20.557Z,55.00
2018-02-23T00:28:48.792Z,54.70
2018-02-23T00:31:16.253Z,54.70
2018-02-23T00:33:44.229Z,54.70
2018-02-23T00:36:12.005Z,54.80
2018-02-23T00:38:39.477Z,55.00
2018-02-23T00:41:08.033Z,55.50
2018-02-23T00:43:35.659Z,55.40
2018-02-23T00:46:03.116Z,55.60
2018-02-23T00:48:30.572Z,55.70
2018-02-23T00:50:58.313Z,55.80
2018-02-23T00:53:25.975Z,56.00
2018-02-23T00:55:53.692Z,56.20
2018-02-23T00:58:21.144Z,56.90
2018-02-23T01:00:48.612Z,56.50
2018-02-23T01:03:16.071Z,56.80
2018-02-23T01:05:43.533Z,56.90
2018-02-23T01:08:10.983Z,57.10
2018-02-23T01:10:38.530Z,57.20
2018-02-23T01:13:05.940Z,57.40
2018-02-23T01:15:33.750Z,57.40
2018-02-23T01:18:01.199Z,57.50
2018-02-23T01:20:28.698Z,57.50
2018-02-23T01:22:56.921Z,57.60
2018-02-23T01:25:24.575Z,57.60
2018-02-23T01:27:52.053Z,57.70
2018-02-23T01:30:19.543Z,57.80
2018-02-23T01:32:48.401Z,57.90
2018-02-23T01:35:16.138Z,57.90
2018-02-23T01:37:43.692Z,58.00
2018-02-23T01:40:12.335Z,58.00
2018-02-23T01:42:41.101Z,58.10
2018-02-23T01:45:08.984Z,58.10
2018-02-23T01:47:37.308Z,58.40
2018-02-23T01:50:04.781Z,58.30
2018-02-23T01:52:32.471Z,58.40
2018-02-23T01:55:00.320Z,58.50
2018-02-23T01:57:27.768Z,58.60
2018-02-23T01:59:55.285Z,58.60
2018-02-23T02:02:22.785Z,58.60
2018-02-23T02:04:50.237Z,58.70
2018-02-23T02:07:18.009Z,58.80
2018-02-23T02:09:45.474Z,59.10
2018-02-23T02:12:13.137Z,59.00
2018-02-23T02:14:40.590Z,59.20
2018-02-23T02:17:08.039Z,59.20
2018-02-23T02:19:35.546Z,59.30
2018-02-23T02:22:02.948Z,59.30
2018-02-23T02:24:30.585Z,59.20
2018-02-23T02:26:58.030Z,59.30
2018-02-23T02:29:25.522Z,59.40
2018-02-23T02:31:52.985Z,59.50
2018-02-23T02:34:21.076Z,59.60
2018-02-23T02:36:48.534Z,59.60
2018-02-23T02:39:16.295Z,59.70
2018-02-23T02:41:44.050Z,59.70
2018-02-23T02:44:11.552Z,59.60
2018-02-23T02:46:39.010Z,59.70
2018-02-23T02:49:06.616Z,59.60
2018-02-23T02:51:34.057Z,59.70
2018-02-23T02:54:01.523Z,59.80
2018-02-23T02:56:29.773Z,59.90
2018-02-23T02:58:57.222Z,59.90
2018-02-23T03:01:24.687Z,59.90
2018-02-23T03:03:52.225Z,60.00
2018-02-23T03:06:19.699Z,60.10
2018-02-23T03:08:47.157Z,60.00
2018-02-23T03:11:14.742Z,60.20
2018-02-23T03:13:42.376Z,60.10
2018-02-23T03:16:09.844Z,60.30
2018-02-23T03:18:37.839Z,60.40
2018-02-23T03:21:05.315Z,60.50
2018-02-23T03:23:33.564Z,60.60
2018-02-23T03:26:01.064Z,60.60
2018-02-23T03:28:28.545Z,60.70
2018-02-23T03:30:55.992Z,60.60
2018-02-23T03:33:23.594Z,60.60
2018-02-23T03:35:51.460Z,60.60
2018-02-23T03:38:18.936Z,60.60
2018-02-23T03:40:47.460Z,60.80
2018-02-23T03:43:14.937Z,60.70
2018-02-23T03:45:42.828Z,60.90
2018-02-23T03:48:12.138Z,61.50
2018-02-23T03:50:39.615Z,61.40
2018-02-23T03:53:07.832Z,61.50
2018-02-23T03:55:35.926Z,61.50
2018-02-23T03:58:03.380Z,61.00
2018-02-23T04:00:30.859Z,61.00
2018-02-23T04:02:59.101Z,61.10
2018-02-23T04:05:26.578Z,61.00
2018-02-23T04:07:54.784Z,61.80
2018-02-23T04:10:22.521Z,61.10
2018-02-23T04:12:49.966Z,61.20
2018-02-23T04:15:19.066Z,61.50
2018-02-23T04:17:46.509Z,61.50
2018-02-23T04:20:14.287Z,61.60
2018-02-23T04:22:41.739Z,61.80
2018-02-23T04:25:09.218Z,62.00
2018-02-23T04:27:38.082Z,62.00
2018-02-23T04:30:05.546Z,62.00
2018-02-23T04:32:32.990Z,62.10
2018-02-23T04:35:00.980Z,62.80
2018-02-23T04:37:28.419Z,62.20
2018-02-23T04:39:56.234Z,62.20
2018-02-23T04:42:23.813Z,62.20
2018-02-23T04:44:51.326Z,62.10
2018-02-23T04:47:19.181Z,61.80
2018-02-23T04:49:46.669Z,61.70
2018-02-23T04:52:14.124Z,61.70
2018-02-23T04:54:42.659Z,61.70
2018-02-23T04:57:10.116Z,61.50
2018-02-23T04:59:37.627Z,61.40
2018-02-23T05:02:05.381Z,61.40
2018-02-23T05:04:34.238Z,61.50
2018-02-23T05:07:01.718Z,61.50
2018-02-23T05:09:29.945Z,61.40
2018-02-23T05:11:57.420Z,61.50
2018-02-23T05:14:24.872Z,61.30
2018-02-23T05:16:52.863Z,61.40
2018-02-23T05:19:21.082Z,61.80
2018-02-23T05:21:48.621Z,61.50
2018-02-23T05:24:16.832Z,62.30
2018-02-23T05:26:44.321Z,62.20
2018-02-23T05:29:11.777Z,63.00
2018-02-23T05:31:39.528Z,61.90
2018-02-23T05:34:07.328Z,61.70
2018-02-23T05:36:35.992Z,61.80
2018-02-23T05:39:04.069Z,61.80
2018-02-23T05:41:31.551Z,61.80
2018-02-23T05:43:59.764Z,61.70
2018-02-23T05:46:27.313Z,61.60
2018-02-23T05:48:54.804Z,61.60
2018-02-23T05:51:22.481Z,61.60
2018-02-23T05:53:49.952Z,61.50
2018-02-23T05:56:18.689Z,61.30
2018-02-23T05:58:46.165Z,61.30
2018-02-23T06:01:15.141Z,61.30
2018-02-23T06:03:42.589Z,61.30
2018-02-23T06:06:10.069Z,61.30
2018-02-23T06:08:37.698Z,61.20
2018-02-23T06:11:05.347Z,61.00
2018-02-23T06:13:33.431Z,60.70
2018-02-23T06:16:07.481Z,60.70
2018-02-23T06:18:40.765Z,60.50
2018-02-23T06:21:08.288Z,60.40
2018-02-23T06:23:39.604Z,60.40
2018-02-23T06:26:08.367Z,59.90
2018-02-23T06:28:35.809Z,59.80
2018-02-23T06:31:03.320Z,59.70
2018-02-23T06:33:32.067Z,59.30
2018-02-23T06:35:59.915Z,59.50
2018-02-23T06:38:27.369Z,59.40
2018-02-23T06:40:54.996Z,59.20
2018-02-23T06:43:22.441Z,59.10
2018-02-23T06:45:49.879Z,58.90
2018-02-23T06:48:18.188Z,58.90
2018-02-23T06:50:45.897Z,58.80
2018-02-23T06:53:13.365Z,58.80
2018-02-23T06:55:44.134Z,58.90
2018-02-23T06:58:11.633Z,58.90
2018-02-23T07:00:39.107Z,58.90
2018-02-23T07:03:06.592Z,58.90
2018-02-23T07:05:34.087Z,58.90
2018-02-23T07:08:01.536Z,58.80
2018-02-23T07:10:30.165Z,58.90
2018-02-23T07:12:58.020Z,59.00
2018-02-23T07:15:25.521Z,59.00
2018-02-23T07:17:53.762Z,58.90
2018-02-23T07:20:21.270Z,58.90
2018-02-23T07:22:48.717Z,58.90
2018-02-23T07:25:16.344Z,58.90
2018-02-23T07:27:44.209Z,58.80
2018-02-23T07:30:12.675Z,59.20
2018-02-23T07:32:40.128Z,58.60
2018-02-23T07:35:08.205Z,58.50
2018-02-23T07:37:36.418Z,58.20
2018-02-23T07:40:04.400Z,58.20
2018-02-23T07:42:31.840Z,58.30
2018-02-23T07:44:59.328Z,58.30
2018-02-23T07:47:26.774Z,58.20
2018-02-23T07:49:54.373Z,58.10
2018-02-23T07:52:21.832Z,57.90
2018-02-23T07:54:49.880Z,57.40
2018-02-23T07:57:17.333Z,56.90
2018-02-23T07:59:44.784Z,56.80
2018-02-23T08:02:12.271Z,56.50
2018-02-23T08:04:40.044Z,55.30
2018-02-23T08:07:07.700Z,55.00
2018-02-23T08:09:35.170Z,54.80
2018-02-23T08:12:03.471Z,53.50
2018-02-23T08:14:30.914Z,53.40
2018-02-23T08:16:59.229Z,52.50
2018-02-23T08:19:26.680Z,52.40
2018-02-23T08:21:54.173Z,52.30
2018-02-23T08:24:21.609Z,51.00
2018-02-23T08:26:49.502Z,50.50
2018-02-23T08:29:17.000Z,50.20
2018-02-23T08:31:44.472Z,50.00
2018-02-23T08:34:12.198Z,49.30
2018-02-23T08:36:40.684Z,48.40
2018-02-23T08:39:09.261Z,48.40
2018-02-23T08:41:37.505Z,48.90
2018-02-23T08:44:05.008Z,48.90
2018-02-23T08:46:32.464Z,49.20
2018-02-23T08:49:00.121Z,48.90
2018-02-23T08:51:27.812Z,47.70
2018-02-23T08:53:55.256Z,47.70
2018-02-23T08:56:23.054Z,47.80
2018-02-23T08:58:50.543Z,47.70
2018-02-23T09:01:20.552Z,48.10
2018-02-23T09:03:47.996Z,48.10
2018-02-23T09:06:15.474Z,48.10
2018-02-23T09:08:42.921Z,48.10
2018-02-23T09:11:10.394Z,48.80
2018-02-23T09:13:38.611Z,48.30
2018-02-23T09:16:06.405Z,48.30
2018-02-23T09:18:33.852Z,47.70
2018-02-23T09:21:01.326Z,47.50
2018-02-23T09:23:28.751Z,47.10
2018-02-23T09:25:56.538Z,47.10
2018-02-23T09:28:23.974Z,47.50
2018-02-23T09:30:51.665Z,47.60
2018-02-23T09:33:19.098Z,46.20
2018-02-23T09:35:47.190Z,45.60
2018-02-23T09:38:14.624Z,44.80
2018-02-23T09:40:42.610Z,45.10
2018-02-23T09:43:10.053Z,44.20
2018-02-23T09:45:37.589Z,44.80
2018-02-23T09:48:05.600Z,44.90
2018-02-23T09:50:33.067Z,44.90
2018-02-23T09:53:00.569Z,44.50
2018-02-23T09:55:28.475Z,44.70
2018-02-23T09:57:55.949Z,44.50
2018-02-23T10:00:23.397Z,45.60
2018-02-23T10:02:51.045Z,45.40
2018-02-23T10:05:18.492Z,44.90
2018-02-23T10:07:47.037Z,45.30
2018-02-23T10:10:14.542Z,44.80
2018-02-23T10:12:42.014Z,44.20
2018-02-23T10:15:09.522Z,42.20
2018-02-23T10:17:36.994Z,41.70
2018-02-23T10:20:04.651Z,41.50
2018-02-23T10:22:32.132Z,41.90
2018-02-23T10:24:59.994Z,41.30
2018-02-23T10:27:27.632Z,41.10
2018-02-23T10:29:55.110Z,40.20
2018-02-23T10:32:22.577Z,40.00
2018-02-23T10:34:50.554Z,40.00
2018-02-23T10:37:18.102Z,40.50
2018-02-23T10:39:45.906Z,40.60
2018-02-23T10:42:13.353Z,40.00
2018-02-23T10:44:42.133Z,38.60
2018-02-23T10:47:10.408Z,38.30
2018-02-23T10:49:37.854Z,38.30
2018-02-23T10:52:06.264Z,38.20
2018-02-23T10:54:34.242Z,38.40
2018-02-23T10:57:02.356Z,37.90
2018-02-23T10:59:29.826Z,37.90
2018-02-23T11:01:57.297Z,37.60
2018-02-23T11:04:24.907Z,36.40
2018-02-23T11:06:52.703Z,35.90
2018-02-23T11:09:20.209Z,35.60
2018-02-23T11:11:47.660Z,36.00
2018-02-23T11:14:15.877Z,35.30
2018-02-23T11:16:43.413Z,34.70
2018-02-23T11:19:10.891Z,34.70
2018-02-23T11:21:38.621Z,34.30
2018-02-23T11:24:07.199Z,34.50
2018-02-23T11:26:35.831Z,35.20
2018-02-23T11:29:04.490Z,35.20
2018-02-23T11:31:32.256Z,35.20
2018-02-23T11:34:00.267Z,34.70
2018-02-23T11:36:29.114Z,33.40
2018-02-23T11:38:57.396Z,33.60
2018-02-23T11:41:25.182Z,34.30
2018-02-23T11:43:52.827Z,34.70
2018-02-23T11:46:20.289Z,33.30
2018-02-23T11:48:48.054Z,31.40
2018-02-23T11:51:15.592Z,30.80
2018-02-23T11:53:43.106Z,31.50
2018-02-23T11:56:11.726Z,31.30
2018-02-23T11:58:39.322Z,30.90
2018-02-23T12:01:06.761Z,30.30
2018-02-23T12:03:34.209Z,30.50
2018-02-23T12:06:01.710Z,30.00
2018-02-23T12:08:29.158Z,30.00
2018-02-23T12:10:57.236Z,30.50
2018-02-23T12:13:24.702Z,30.00
2018-02-23T12:15:52.332Z,30.60
2018-02-23T12:18:19.781Z,30.20
2018-02-23T12:20:47.697Z,29.70
2018-02-23T12:23:15.909Z,29.20
2018-02-23T12:25:43.394Z,29.20
2018-02-23T12:28:10.837Z,29.50
2018-02-23T12:30:38.501Z,29.40
2018-02-23T12:33:05.973Z,29.00
2018-02-23T12:35:33.731Z,29.40
2018-02-23T12:38:01.793Z,28.80
2018-02-23T12:40:30.313Z,28.90
2018-02-23T12:42:58.653Z,28.90
2018-02-23T12:45:26.177Z,28.90
2018-02-23T12:47:53.732Z,28.50
2018-02-23T12:50:21.396Z,28.80
2018-02-23T12:52:48.873Z,28.40
2018-02-23T12:55:16.821Z,28.50
2018-02-23T12:57:44.689Z,27.80
2018-02-23T13:00:12.189Z,27.70
2018-02-23T13:02:39.894Z,27.90
2018-02-23T13:05:07.508Z,27.60
2018-02-23T13:07:34.960Z,27.90
2018-02-23T13:10:02.728Z,27.60
2018-02-23T13:12:31.919Z,27.00
2018-02-23T13:15:05.313Z,27.00
2018-02-23T13:17:32.773Z,26.90
2018-02-23T13:20:00.444Z,27.00
2018-02-23T13:22:28.365Z,27.30
2018-02-23T13:24:55.922Z,27.20
2018-02-23T13:27:23.370Z,26.80
2018-02-23T13:29:50.840Z,26.50
2018-02-23T13:32:18.313Z,26.70
2018-02-23T13:34:46.193Z,26.60
2018-02-23T13:37:13.682Z,26.80
2018-02-23T13:39:43.005Z,26.00
2018-02-23T13:42:10.489Z,26.00
2018-02-23T13:44:38.002Z,26.00
2018-02-23T13:47:06.248Z,26.20
2018-02-23T13:49:33.699Z,26.20
2018-02-23T13:52:01.182Z,26.40
2018-02-23T13:54:29.996Z,26.60
2018-02-23T13:56:57.820Z,26.50
2018-02-23T13:59:25.278Z,26.00
2018-02-23T14:01:52.736Z,25.70
2018-02-23T14:04:20.695Z,25.80
2018-02-23T14:06:49.687Z,26.10
2018-02-23T14:09:17.132Z,25.60
2018-02-23T14:11:45.034Z,25.90
2018-02-23T14:14:12.572Z,26.00
2018-02-23T14:16:40.021Z,26.50
2018-02-23T14:19:07.522Z,26.40
2018-02-23T14:21:35.760Z,26.00
2018-02-23T14:24:03.209Z,25.90
2018-02-23T14:26:31.475Z,25.80
2018-02-23T14:28:59.043Z,25.80
2018-02-23T14:31:26.490Z,25.50
2018-02-23T14:33:54.564Z,25.50
2018-02-23T14:36:22.445Z,25.30
2018-02-23T14:38:49.921Z,25.80
2018-02-23T14:41:18.575Z,25.40
2018-02-23T14:43:46.049Z,25.30
2018-02-23T14:46:13.517Z,25.20
2018-02-23T14:48:53.105Z,25.80
2018-02-23T14:51:21.298Z,26.20
2018-02-23T14:53:49.010Z,26.30
2018-02-23T14:56:16.836Z,25.50
2018-02-23T14:58:44.726Z,26.00
2018-02-23T15:01:13.380Z,25.80
2018-02-23T15:03:40.846Z,25.30
2018-02-23T15:06:08.308Z,25.60
2018-02-23T15:08:35.804Z,26.00
2018-02-23T15:11:04.134Z,25.90
2018-02-23T15:13:31.582Z,25.40
2018-02-23T15:15:59.057Z,25.50
2018-02-23T15:18:26.504Z,25.30
2018-02-23T15:20:54.274Z,25.90
2018-02-23T15:23:22.492Z,25.70
2018-02-23T15:25:49.965Z,25.60
2018-02-23T15:28:17.568Z,25.80
2018-02-23T15:30:56.912Z,26.50
2018-02-23T15:33:25.584Z,25.40
2018-02-23T15:35:53.453Z,25.30
2018-02-23T15:38:21.992Z,26.10
2018-02-23T15:40:49.797Z,26.10
2018-02-23T15:43:17.245Z,26.10
2018-02-23T15:45:45.938Z,25.10
2018-02-23T15:48:26.174Z,25.10
2018-02-23T15:50:59.315Z,25.50
2018-02-23T15:53:27.971Z,25.60
2018-02-23T15:55:55.864Z,25.60
2018-02-23T15:58:27.480Z,25.40
2018-02-23T16:00:55.026Z,25.40
2018-02-23T16:03:22.403Z,25.60
2018-02-23T16:05:49.984Z,25.50
2018-02-23T16:08:17.418Z,26.20
2018-02-23T16:10:45.427Z,26.70
2018-02-23T16:13:12.877Z,26.80
2018-02-23T16:15:41.450Z,27.30
2018-02-23T16:18:09.694Z,27.70
2018-02-23T16:20:37.180Z,27.60
2018-02-23T16:23:05.418Z,27.90
2018-02-23T16:25:32.959Z,27.90
2018-02-23T16:28:00.422Z,28.60
2018-02-23T16:30:27.999Z,28.80
2018-02-23T16:32:55.458Z,28.80
2018-02-23T16:35:23.635Z,28.80
2018-02-23T16:37:51.629Z,28.70
2018-02-23T16:40:20.377Z,29.60
2018-02-23T16:42:47.820Z,29.70
2018-02-23T16:45:15.619Z,29.80
2018-02-23T16:47:43.062Z,30.40
2018-02-23T16:50:10.734Z,31.00
2018-02-23T16:52:38.208Z,31.50
2018-02-23T16:55:06.765Z,32.00
2018-02-23T16:57:35.658Z,31.90
2018-02-23T17:00:03.169Z,32.60
2018-02-23T17:02:30.736Z,32.40
2018-02-23T17:04:58.270Z,33.00
2018-02-23T17:07:26.489Z,33.60
2018-02-23T17:09:53.952Z,33.40
2018-02-23T17:12:21.483Z,33.70
2018-02-23T17:14:49.284Z,33.80
2018-02-23T17:17:16.731Z,34.10
2018-02-23T17:19:44.206Z,34.50
2018-02-23T17:22:11.672Z,34.50
2018-02-23T17:24:39.332Z,34.80
2018-02-23T17:27:06.777Z,34.90
2018-02-23T17:29:34.734Z,35.30
2018-02-23T17:32:02.390Z,35.70
2018-02-23T17:34:30.199Z,35.90
2018-02-23T17:36:58.433Z,36.40
2018-02-23T17:39:26.426Z,36.30
2018-02-23T17:41:54.645Z,36.80
2018-02-23T17:44:22.441Z,36.80
2018-02-23T17:46:49.940Z,36.70
2018-02-23T17:49:18.148Z,37.20
2018-02-23T17:51:45.629Z,37.20
2018-02-23T17:54:13.085Z,37.30
2018-02-23T17:56:40.892Z,38.10
2018-02-23T17:59:09.574Z,38.00
2018-02-23T18:01:37.815Z,38.10
2018-02-23T18:04:05.308Z,38.10
2018-02-23T18:06:33.530Z,38.70
2018-02-23T18:09:01.329Z,38.60
2018-02-23T18:11:29.552Z,39.10
2018-02-23T18:13:57.017Z,38.80
2018-02-23T18:16:24.473Z,39.00
2018-02-23T18:18:52.505Z,39.10
2018-02-23T18:21:20.385Z,40.00
2018-02-23T18:23:47.868Z,39.70
2018-02-23T18:26:15.342Z,40.00
2018-02-23T18:28:42.847Z,40.10
2018-02-23T18:31:11.298Z,40.50
2018-02-23T18:33:39.292Z,40.50
2018-02-23T18:36:07.941Z,40.90
2018-02-23T18:38:35.408Z,40.90
2018-02-23T18:41:03.249Z,41.30
2018-02-23T18:43:31.485Z,64.80
2018-02-23T18:45:59.035Z,65.40
2018-02-23T18:48:27.336Z,41.00
2018-02-23T18:50:54.905Z,41.50
2018-02-23T18:53:22.389Z,40.10
2018-02-23T18:55:50.152Z,40.30
2018-02-23T18:58:17.931Z,40.40
2018-02-23T19:00:45.376Z,40.80
2018-02-23T19:03:12.852Z,41.30
2018-02-23T19:05:41.078Z,42.00
2018-02-23T19:08:08.693Z,42.00
2018-02-23T19:10:37.615Z,42.70
2018-02-23T19:13:05.062Z,42.70
2018-02-23T19:15:32.633Z,42.90
2018-02-23T19:18:00.539Z,43.10
2018-02-23T19:20:27.990Z,43.30
2018-02-23T19:22:56.204Z,43.50
2018-02-23T19:25:24.480Z,43.50
2018-02-23T19:27:52.718Z,43.70
2018-02-23T19:30:20.539Z,43.70
2018-02-23T19:32:48.064Z,43.70
2018-02-23T19:35:16.628Z,43.90
2018-02-23T19:37:44.068Z,44.40
2018-02-23T19:40:12.159Z,43.80
2018-02-23T19:42:39.598Z,43.90
2018-02-23T19:45:07.175Z,43.90
2018-02-23T19:47:34.664Z,43.80
2018-02-23T19:50:02.281Z,43.90
2018-02-23T19:52:29.725Z,43.70
2018-02-23T19:54:57.605Z,43.80
2018-02-23T19:57:25.036Z,43.70
2018-02-23T19:59:52.894Z,43.70
2018-02-23T20:02:20.618Z,43.70
2018-02-23T20:04:48.823Z,43.80
2018-02-23T20:07:16.418Z,43.80
2018-02-23T20:09:44.131Z,43.90
2018-02-23T20:12:11.848Z,43.70
2018-02-23T20:14:39.384Z,43.90
2018-02-23T20:17:06.974Z,43.80
2018-02-23T20:19:34.423Z,44.00
2018-02-23T20:22:01.985Z,43.80
2018-02-23T20:24:29.504Z,43.60
2018-02-23T20:26:57.092Z,43.60
2018-02-23T20:29:24.537Z,43.70
2018-02-23T20:31:52.018Z,43.80
2018-02-23T20:34:20.377Z,43.60
2018-02-23T20:36:48.766Z,43.80
2018-02-23T20:39:16.778Z,43.40
2018-02-23T20:41:44.402Z,43.30
2018-02-23T20:44:12.734Z,43.30
2018-02-23T20:46:40.308Z,43.40
2018-02-23T20:49:08.308Z,43.30
2018-02-23T20:51:36.549Z,43.00
2018-02-23T20:54:04.600Z,43.00
2018-02-23T20:56:33.339Z,42.90
2018-02-23T20:59:02.023Z,42.70
2018-02-23T21:01:29.897Z,42.50
2018-02-23T21:03:57.349Z,42.20
2018-02-23T21:06:25.038Z,42.10
2018-02-23T21:08:52.527Z,42.00
2018-02-23T21:11:20.093Z,41.90
2018-02-23T21:13:47.994Z,41.90
2018-02-23T21:16:15.495Z,41.70
2018-02-23T21:18:42.932Z,41.60
2018-02-23T21:21:11.172Z,41.10
2018-02-23T21:23:38.703Z,41.10
2018-02-23T21:26:06.196Z,40.90
2018-02-23T21:28:33.675Z,40.90
2018-02-23T21:31:02.191Z,40.70
2018-02-23T21:33:29.994Z,40.70
2018-02-23T21:35:58.471Z,40.40
2018-02-23T21:38:25.927Z,40.40
2018-02-23T21:40:53.798Z,41.60
2018-02-23T21:43:21.352Z,41.20
2018-02-23T21:45:49.345Z,40.80
2018-02-23T21:48:16.815Z,40.10
2018-02-23T21:50:45.379Z,39.90
2018-02-23T21:53:13.673Z,39.50
2018-02-23T21:55:41.429Z,39.40
2018-02-23T21:58:09.740Z,39.50
2018-02-23T22:00:37.610Z,39.40
2018-02-23T22:03:05.093Z,39.40
2018-02-23T22:05:32.558Z,39.40
2018-02-23T22:08:00.035Z,39.60
2018-02-23T22:10:28.283Z,40.10
2018-02-23T22:12:55.944Z,39.50
2018-02-23T22:15:23.411Z,39.50
2018-02-23T22:17:50.933Z,39.50
2018-02-23T22:20:18.739Z,39.60
2018-02-23T22:22:46.388Z,39.70
2018-02-23T22:25:13.867Z,39.50
2018-02-23T22:27:41.319Z,39.90
2018-02-23T22:30:08.818Z,40.00
2018-02-23T22:32:36.304Z,40.00
2018-02-23T22:35:04.046Z,39.90
2018-02-23T22:37:31.846Z,39.80
2018-02-23T22:39:59.777Z,39.80
2018-02-23T22:42:27.239Z,39.80
2018-02-23T22:44:55.097Z,40.00
2018-02-23T22:47:22.533Z,40.00
2018-02-23T22:49:50.228Z,40.00
2018-02-23T22:52:17.674Z,40.00
2018-02-23T22:54:45.577Z,39.90
2018-02-23T22:57:13.049Z,39.90
2018-02-23T22:59:42.037Z,40.60
2018-02-23T23:02:09.490Z,40.10
2018-02-23T23:04:36.934Z,40.00
2018-02-23T23:07:11.354Z,40.10
2018-02-23T23:09:38.962Z,40.10
2018-02-23T23:12:06.444Z,40.20
2018-02-23T23:14:33.920Z,40.30
2018-02-23T23:17:01.374Z,40.20
2018-02-23T23:19:29.233Z,40.30
2018-02-23T23:21:56.965Z,40.50
2018-02-23T23:24:24.602Z,40.60
2018-02-23T23:26:53.483Z,40.80
2018-02-23T23:29:20.989Z,40.70
2018-02-23T23:31:48.495Z,40.60
2018-02-23T23:34:16.977Z,40.40
2018-02-23T23:36:45.761Z,40.90
2018-02-23T23:39:13.709Z,40.80
2018-02-23T23:41:41.593Z,41.10
2018-02-23T23:44:09.063Z,40.90
2018-02-23T23:46:37.358Z,41.00
2018-02-23T23:49:04.813Z,41.00
2018-02-23T23:51:32.312Z,41.60
2018-02-23T23:53:59.775Z,41.20
2018-02-23T23:56:27.550Z,41.20
2018-02-23T23:58:55.010Z,41.10
